Wind From: 10-12-2017 19:04 Until: 11-12-2017 16:00 warning for: Wind Level: Orange info button

Power and phone distribution networks may be disrupted for relatively long periods., Roofs and chimneys can be damaged. , Tree branches may break. , Vehicles can be deported. , Traffic may be disrupted, particularly on secondary roads in forest areas. Limit your trips. , Limit your speed in highway driving, especially if you drive a vehicle or hitch sensitive to wind. , Do not go for walks in forests or along the coast., In town, be vigilant against possible falling objects., Do not work on roofs and do not touch any electrical line fallen on the ground., Store or secure sensitive objects to wind or likely to be damaged., Always install power generators outside buildings. 


Meteo18 Weather Cam more information Meteo18 Weather Cam


Thunder radar more information blitzortung!


Rain radar more information rain snow radar


Visit our other weather sites:

Template documentation
and downloads

And another site



Weather Underground History page Text

Daily Summary for September 25, 2017 Units:  Metric    English   Both
« Previous Day
Next Day »
Daily Weekly Monthly Yearly Custom
  High: Low: Average:
Temperature: 16.2 °C 12.5 °C 14.8 °C
Dew Point: 15.2 °C 10.8 °C 13.1 °C
Humidity: 97 % 79 % 90 %
Wind Speed: 16.1 km/h 0.0 km/h 2.4 km/h
Wind Gust: 25.7 km/h - -
Wind:- - WSW
Pressure: 1021.2 hPa 1017.5 hPa -
Precipitation: 12.2 mm    
Historical Graphs
 
 
Tabular Data for September 25, 2017
Time Temperature Dew Point Pressure Wind Wind Speed Wind Gust Humidity Rainfall Rate (Hourly)
00:02 16.1 °C 12.5 °C 1019.5 hPa Calm   1.6 km/h 79 % 0.0 mm
00:12 15.7 °C 12.6 °C 1019.5 hPa Calm   1.6 km/h 82 % 0.0 mm
00:17 15.7 °C 12.4 °C 1019.5 hPa Calm   1.6 km/h 81 % 0.0 mm
00:22 15.8 °C 12.4 °C 1019.5 hPa WNW 1.6 km/h 1.6 km/h 80 % 0.0 mm
00:32 15.6 °C 12.2 °C 1019.5 hPa Calm   3.2 km/h 80 % 0.0 mm
00:37 15.7 °C 12.3 °C 1019.5 hPa North 1.6 km/h 3.2 km/h 80 % 0.0 mm
00:42 15.8 °C 12.2 °C 1019.5 hPa NNW 1.6 km/h 3.2 km/h 79 % 0.0 mm
00:52 15.6 °C 12.0 °C 1019.5 hPa Calm   1.6 km/h 79 % 0.0 mm
00:57 15.4 °C 12.3 °C 1019.5 hPa Calm   1.6 km/h 82 % 0.0 mm
01:02 15.1 °C 12.2 °C 1019.5 hPa WNW 1.6 km/h 1.6 km/h 83 % 0.0 mm
01:12 14.9 °C 12.2 °C 1019.2 hPa Calm   1.6 km/h 84 % 0.0 mm
01:17 14.8 °C 12.1 °C 1019.2 hPa WNW 1.6 km/h 1.6 km/h 84 % 0.0 mm
01:22 14.9 °C 12.0 °C 1019.2 hPa Calm   1.6 km/h 83 % 0.0 mm
01:27 15.0 °C 12.0 °C 1019.2 hPa Calm   1.6 km/h 82 % 0.0 mm
01:32 14.9 °C 11.9 °C 1019.2 hPa Calm   1.6 km/h 82 % 0.0 mm
01:42 14.4 °C 11.9 °C 1019.2 hPa NW 1.6 km/h 1.6 km/h 85 % 0.0 mm
01:47 14.3 °C 11.8 °C 1019.2 hPa Calm   3.2 km/h 85 % 0.0 mm
01:52 14.5 °C 11.8 °C 1019.2 hPa Calm   3.2 km/h 84 % 0.0 mm
01:57 14.8 °C 11.8 °C 1019.2 hPa Calm   1.6 km/h 82 % 0.0 mm
02:02 14.8 °C 11.6 °C 1019.2 hPa Calm   1.6 km/h 81 % 0.0 mm
02:07 14.8 °C 11.6 °C 1018.8 hPa Calm   1.6 km/h 81 % 0.0 mm
02:17 14.3 °C 11.6 °C 1019.2 hPa Calm   1.6 km/h 84 % 0.0 mm
02:22 14.2 °C 11.5 °C 1019.2 hPa Calm   1.6 km/h 84 % 0.0 mm
02:32 14.3 °C 11.5 °C 1019.2 hPa Calm   1.6 km/h 83 % 0.0 mm
02:42 14.1 °C 11.4 °C 1019.2 hPa Calm   1.6 km/h 84 % 0.0 mm
02:47 13.9 °C 11.4 °C 1019.2 hPa Calm   1.6 km/h 85 % 0.0 mm
02:52 13.9 °C 11.6 °C 1019.2 hPa Calm   1.6 km/h 86 % 0.0 mm
02:57 13.8 °C 11.3 °C 1018.8 hPa Calm   1.6 km/h 85 % 0.0 mm
03:02 13.9 °C 11.4 °C 1018.8 hPa Calm   1.6 km/h 85 % 0.0 mm
03:12 14.1 °C 11.4 °C 1018.8 hPa Calm   1.6 km/h 84 % 0.0 mm
03:17 13.8 °C 11.3 °C 1018.8 hPa Calm     85 % 0.0 mm
03:22 13.6 °C 11.3 °C 1018.8 hPa Calm     86 % 0.0 mm
03:32 13.4 °C 11.5 °C 1018.8 hPa Calm     88 % 0.0 mm
03:37 13.3 °C 11.2 °C 1018.8 hPa Calm     87 % 0.0 mm
03:42 13.3 °C 11.4 °C 1018.8 hPa Calm     88 % 0.0 mm
03:52 13.6 °C 11.5 °C 1018.8 hPa North 3.2 km/h   87 % 0.0 mm
03:57 13.9 °C 11.2 °C 1018.8 hPa North 1.6 km/h 3.2 km/h 84 % 0.0 mm
04:02 13.8 °C 11.3 °C 1018.8 hPa Calm   3.2 km/h 85 % 0.0 mm
04:12 13.7 °C 11.2 °C 1018.8 hPa NNW 1.6 km/h 3.2 km/h 85 % 0.0 mm
04:17 14.0 °C 11.3 °C 1018.8 hPa Calm   3.2 km/h 84 % 0.0 mm
04:27 14.0 °C 11.2 °C 1018.8 hPa Calm   3.2 km/h 83 % 0.0 mm
04:32 14.1 °C 11.4 °C 1018.5 hPa Calm   3.2 km/h 84 % 0.0 mm
04:42 14.6 °C 11.4 °C 1018.5 hPa Calm   1.6 km/h 81 % 0.0 mm
04:47 14.2 °C 11.4 °C 1018.5 hPa Calm   1.6 km/h 83 % 0.0 mm
04:52 13.9 °C 11.2 °C 1018.5 hPa Calm   1.6 km/h 84 % 0.0 mm
05:02 13.8 °C 11.1 °C 1018.5 hPa Calm   1.6 km/h 84 % 0.0 mm
05:12 13.8 °C 11.3 °C 1018.2 hPa Calm   1.6 km/h 85 % 0.0 mm
05:22 13.5 °C 11.4 °C 1018.2 hPa Calm   1.6 km/h 87 % 0.0 mm
05:32 13.7 °C 11.4 °C 1018.2 hPa Calm     86 % 0.0 mm
05:42 13.6 °C 11.1 °C 1018.2 hPa Calm     85 % 0.0 mm
05:52 13.4 °C 11.3 °C 1018.2 hPa Calm     87 % 0.0 mm
05:57 13.4 °C 11.3 °C 1017.8 hPa Calm     87 % 0.0 mm
06:02 13.6 °C 11.3 °C 1017.8 hPa Calm     86 % 0.0 mm
06:07 13.3 °C 11.0 °C 1017.8 hPa Calm     86 % 0.0 mm
06:12 13.2 °C 11.1 °C 1017.8 hPa Calm     87 % 0.0 mm
06:17 13.4 °C 11.3 °C 1017.8 hPa Calm     87 % 0.0 mm
06:22 13.6 °C 11.3 °C 1017.8 hPa Calm     86 % 0.0 mm
06:32 13.6 °C 11.3 °C 1017.8 hPa Calm     86 % 0.0 mm
06:42 13.4 °C 10.9 °C 1017.8 hPa Calm     85 % 0.0 mm
06:47 13.2 °C 10.9 °C 1017.5 hPa Calm     86 % 0.0 mm
06:52 13.3 °C 11.2 °C 1017.8 hPa Calm     87 % 0.0 mm
06:57 13.1 °C 11.2 °C 1017.8 hPa Calm     88 % 0.0 mm
07:02 12.9 °C 11.0 °C 1017.8 hPa Calm     88 % 0.0 mm
07:07 13.1 °C 11.0 °C 1017.8 hPa Calm     87 % 0.0 mm
07:17 12.7 °C 10.9 °C 1017.8 hPa Calm     89 % 0.0 mm
07:22 12.6 °C 10.8 °C 1017.8 hPa Calm     89 % 0.0 mm
07:27 12.6 °C 11.0 °C 1018.2 hPa Calm     90 % 0.0 mm
07:32 12.6 °C 10.8 °C 1018.2 hPa Calm     89 % 0.0 mm
07:37 12.5 °C 10.9 °C 1017.8 hPa Calm     90 % 0.0 mm
07:47 13.0 °C 11.2 °C 1017.8 hPa NNE 1.6 km/h   89 % 0.0 mm
07:52 13.2 °C 11.1 °C 1017.8 hPa Calm   3.2 km/h 87 % 0.0 mm
07:57 12.9 °C 10.8 °C 1018.2 hPa NW 1.6 km/h 3.2 km/h 87 % 0.0 mm
08:02 12.9 °C 11.1 °C 1018.2 hPa Calm   3.2 km/h 89 % 0.0 mm
08:12 13.2 °C 11.1 °C 1018.2 hPa Calm   3.2 km/h 87 % 0.0 mm
08:17 13.3 °C 11.2 °C 1018.2 hPa Calm   3.2 km/h 87 % 0.0 mm
08:22 13.3 °C 11.2 °C 1018.2 hPa Calm   1.6 km/h 87 % 0.0 mm
08:32 13.6 °C 11.1 °C 1018.2 hPa Calm   1.6 km/h 85 % 0.0 mm
08:42 13.8 °C 11.1 °C 1018.2 hPa Calm   1.6 km/h 84 % 0.0 mm
08:47 13.9 °C 11.1 °C 1018.2 hPa Calm   1.6 km/h 83 % 0.0 mm
08:52 14.1 °C 11.3 °C 1018.2 hPa Calm   1.6 km/h 83 % 0.0 mm
08:57 14.2 °C 11.4 °C 1018.2 hPa Calm   1.6 km/h 83 % 0.0 mm
09:02 14.3 °C 11.5 °C 1017.8 hPa Calm     83 % 0.0 mm
09:12 14.4 °C 11.5 °C 1018.2 hPa Calm     83 % 0.0 mm
09:17 14.5 °C 11.6 °C 1018.2 hPa Calm     83 % 0.0 mm
09:22 14.6 °C 11.6 °C 1018.2 hPa Calm   1.6 km/h 82 % 0.0 mm
09:27 14.7 °C 11.5 °C 1018.2 hPa East 1.6 km/h 1.6 km/h 81 % 0.0 mm
09:32 14.8 °C 11.6 °C 1018.2 hPa Calm   6.4 km/h 81 % 0.0 mm
09:37 14.8 °C 11.6 °C 1018.2 hPa Calm   6.4 km/h 81 % 0.0 mm
09:42 14.9 °C 11.7 °C 1018.2 hPa SSW 3.2 km/h 6.4 km/h 81 % 0.0 mm
09:47 14.8 °C 11.4 °C 1018.5 hPa SSW 4.8 km/h 6.4 km/h 80 % 0.0 mm
09:52 14.8 °C 11.6 °C 1018.5 hPa SSE 1.6 km/h 6.4 km/h 81 % 0.0 mm
09:57 14.8 °C 11.6 °C 1018.5 hPa SW 3.2 km/h 6.4 km/h 81 % 0.0 mm
10:02 14.8 °C 11.6 °C 1018.8 hPa Calm   6.4 km/h 81 % 0.0 mm
10:17 14.7 °C 11.8 °C 1018.8 hPa SSW 4.8 km/h 8.0 km/h 83 % 0.0 mm
10:22 14.6 °C 11.9 °C 1018.8 hPa SW 4.8 km/h 6.4 km/h 84 % 0.0 mm
10:32 14.5 °C 12.0 °C 1018.8 hPa SSW 3.2 km/h 8.0 km/h 85 % 0.0 mm
10:37 14.5 °C 12.0 °C 1018.8 hPa Calm   8.0 km/h 85 % 0.0 mm
10:42 14.5 °C 12.0 °C 1019.2 hPa West 1.6 km/h 6.4 km/h 85 % 0.0 mm
10:47 14.5 °C 12.2 °C 1019.2 hPa SW 9.7 km/h 9.7 km/h 86 % 0.0 mm
10:52 14.4 °C 12.1 °C 1019.5 hPa West 6.4 km/h 11.3 km/h 86 % 0.0 mm
10:57 14.3 °C 12.5 °C 1019.5 hPa West 9.7 km/h 11.3 km/h 89 % 0.0 mm
11:02 14.2 °C 12.8 °C 1019.5 hPa WNW 9.7 km/h 16.1 km/h 91 % 1.3 mm
11:07 14.2 °C 13.1 °C 1019.5 hPa SW 14.5 km/h 16.1 km/h 93 % 1.3 mm
11:12 14.3 °C 13.3 °C 1019.5 hPa West 14.5 km/h 22.5 km/h 94 % 4.6 mm
11:17 14.4 °C 13.4 °C 1019.5 hPa West 8.0 km/h 22.5 km/h 94 % 4.6 mm
11:22 14.4 °C 13.4 °C 1019.5 hPa SW 8.0 km/h 25.7 km/h 94 % 7.1 mm
11:32 14.6 °C 13.6 °C 1019.5 hPa WSW 12.9 km/h 24.1 km/h 94 % 7.1 mm
11:37 14.6 °C 13.6 °C 1019.5 hPa WSW 16.1 km/h 24.1 km/h 94 % 7.1 mm
11:42 14.6 °C 13.6 °C 1019.5 hPa WSW 11.3 km/h 22.5 km/h 94 % 7.6 mm
11:47 14.6 °C 13.6 °C 1019.5 hPa West 9.7 km/h 22.5 km/h 94 % 7.6 mm
11:52 14.6 °C 13.6 °C 1019.5 hPa WSW 11.3 km/h 22.5 km/h 94 % 8.1 mm
11:57 14.6 °C 13.5 °C 1019.5 hPa West 12.9 km/h 22.5 km/h 93 % 8.1 mm
12:02 14.7 °C 13.6 °C 1019.5 hPa West 11.3 km/h 20.9 km/h 93 % 7.4 mm
12:07 14.7 °C 13.6 °C 1019.5 hPa WSW 8.0 km/h 20.9 km/h 93 % 7.4 mm
12:12 14.7 °C 13.6 °C 1019.5 hPa SW 4.8 km/h 24.1 km/h 93 % 4.3 mm
12:17 14.7 °C 13.6 °C 1019.5 hPa West 3.2 km/h 24.1 km/h 93 % 4.3 mm
12:22 14.7 °C 13.6 °C 1019.9 hPa WSW 3.2 km/h 24.1 km/h 93 % 3.3 mm
12:32 14.8 °C 13.8 °C 1019.9 hPa SW 6.4 km/h 12.9 km/h 94 % 3.0 mm
12:42 14.8 °C 13.8 °C 1019.9 hPa WSW 11.3 km/h 14.5 km/h 94 % 2.8 mm
12:52 14.8 °C 13.8 °C 1019.5 hPa WNW 8.0 km/h 14.5 km/h 94 % 2.3 mm
13:02 14.9 °C 13.9 °C 1019.9 hPa West 9.7 km/h 14.5 km/h 94 % 1.8 mm
13:12 15.1 °C 14.1 °C 1019.5 hPa WSW 8.0 km/h 14.5 km/h 94 % 1.8 mm
13:22 15.2 °C 14.1 °C 1019.9 hPa SW 4.8 km/h 16.1 km/h 93 % 1.0 mm
13:32 15.3 °C 14.2 °C 1019.9 hPa West 4.8 km/h 14.5 km/h 93 % 0.8 mm
13:42 15.3 °C 14.2 °C 1019.9 hPa SSW 1.6 km/h 16.1 km/h 93 % 0.5 mm
13:47 15.4 °C 14.4 °C 1019.9 hPa SSE 3.2 km/h 14.5 km/h 94 % 0.5 mm
13:57 15.2 °C 14.2 °C 1019.9 hPa SW 9.7 km/h 9.7 km/h 94 % 0.5 mm
14:02 15.2 °C 14.2 °C 1019.9 hPa SW 8.0 km/h 8.0 km/h 94 % 0.5 mm
14:12 15.2 °C 14.2 °C 1019.9 hPa WSW 6.4 km/h 9.7 km/h 94 % 0.5 mm
14:17 15.3 °C 14.3 °C 1019.9 hPa WSW 9.7 km/h 9.7 km/h 94 % 1.0 mm
14:22 15.3 °C 14.3 °C 1019.9 hPa SW 4.8 km/h 8.0 km/h 94 % 1.0 mm
14:27 15.3 °C 14.3 °C 1019.9 hPa SW 4.8 km/h 9.7 km/h 94 % 1.0 mm
14:32 15.3 °C 14.5 °C 1019.9 hPa SW 1.6 km/h 9.7 km/h 95 % 1.0 mm
14:42 15.6 °C 14.8 °C 1019.9 hPa SSW 1.6 km/h 8.0 km/h 95 % 1.0 mm
14:47 15.6 °C 14.6 °C 1019.9 hPa SW 3.2 km/h 8.0 km/h 94 % 0.8 mm
14:52 15.6 °C 14.8 °C 1019.9 hPa SW 3.2 km/h 8.0 km/h 95 % 0.8 mm
14:57 15.7 °C 14.9 °C 1019.9 hPa SSW 6.4 km/h 8.0 km/h 95 % 0.5 mm
15:02 15.7 °C 14.9 °C 1019.9 hPa WSW 6.4 km/h 8.0 km/h 95 % 0.5 mm
15:07 15.8 °C 15.0 °C 1019.9 hPa SW 3.2 km/h 8.0 km/h 95 % 0.3 mm
15:12 15.8 °C 14.8 °C 1019.9 hPa SSW 4.8 km/h 8.0 km/h 94 % 0.3 mm
15:17 15.8 °C 15.0 °C 1019.9 hPa Calm   9.7 km/h 95 % 0.0 mm
15:27 15.9 °C 15.1 °C 1019.9 hPa SW 3.2 km/h 8.0 km/h 95 % 0.0 mm
15:32 15.9 °C 14.9 °C 1019.9 hPa SW 4.8 km/h 8.0 km/h 94 % 0.0 mm
15:37 16.0 °C 15.0 °C 1019.9 hPa South 1.6 km/h 6.4 km/h 94 % 0.0 mm
15:42 16.1 °C 15.1 °C 1019.9 hPa SSW 1.6 km/h 6.4 km/h 94 % 0.0 mm
15:47 16.1 °C 15.1 °C 1019.9 hPa SW 1.6 km/h 6.4 km/h 94 % 0.0 mm
15:57 16.1 °C 15.1 °C 1019.9 hPa West 3.2 km/h 6.4 km/h 94 % 0.0 mm
16:02 16.2 °C 15.2 °C 1019.9 hPa WSW 1.6 km/h 6.4 km/h 94 % 0.0 mm
16:12 16.2 °C 15.1 °C 1019.9 hPa WSW 3.2 km/h 8.0 km/h 93 % 0.0 mm
16:17 16.2 °C 15.1 °C 1019.9 hPa West 4.8 km/h 8.0 km/h 93 % 0.0 mm
16:22 16.2 °C 15.1 °C 1019.9 hPa West 1.6 km/h 8.0 km/h 93 % 0.0 mm
16:27 16.1 °C 14.8 °C 1019.9 hPa WNW 6.4 km/h 8.0 km/h 92 % 0.0 mm
16:37 16.2 °C 14.9 °C 1019.9 hPa West 1.6 km/h 9.7 km/h 92 % 0.0 mm
16:42 16.2 °C 14.9 °C 1019.9 hPa WSW 3.2 km/h 9.7 km/h 92 % 0.0 mm
16:47 16.2 °C 15.1 °C 1019.9 hPa SW 3.2 km/h 9.7 km/h 93 % 0.0 mm
16:52 16.2 °C 14.9 °C 1019.9 hPa WSW 4.8 km/h 9.7 km/h 92 % 0.0 mm
17:02 16.2 °C 14.9 °C 1019.9 hPa WSW 3.2 km/h 8.0 km/h 92 % 0.0 mm
17:07 16.2 °C 15.1 °C 1019.9 hPa West 1.6 km/h 8.0 km/h 93 % 0.0 mm
17:17 16.2 °C 14.9 °C 1019.9 hPa SW 1.6 km/h 8.0 km/h 92 % 0.0 mm
17:22 16.1 °C 14.8 °C 1019.9 hPa West 6.4 km/h 8.0 km/h 92 % 0.0 mm
17:27 16.1 °C 14.8 °C 1019.9 hPa SW 3.2 km/h 8.0 km/h 92 % 0.0 mm
17:32 16.1 °C 14.8 °C 1019.9 hPa SW 3.2 km/h 8.0 km/h 92 % 0.0 mm
17:37 16.1 °C 14.8 °C 1019.9 hPa South 3.2 km/h 9.7 km/h 92 % 0.0 mm
17:42 16.1 °C 15.0 °C 1019.9 hPa SW 8.0 km/h 9.7 km/h 93 % 0.0 mm
17:47 16.1 °C 15.0 °C 1019.9 hPa SW 3.2 km/h 9.7 km/h 93 % 0.0 mm
17:52 16.1 °C 15.0 °C 1019.9 hPa SW 4.8 km/h 9.7 km/h 93 % 0.0 mm
17:57 16.0 °C 14.9 °C 1019.9 hPa WSW 1.6 km/h 9.7 km/h 93 % 0.0 mm
18:02 15.9 °C 14.8 °C 1020.2 hPa Calm   9.7 km/h 93 % 0.0 mm
18:12 15.9 °C 14.8 °C 1020.2 hPa SW 3.2 km/h 9.7 km/h 93 % 0.0 mm
18:17 15.9 °C 14.8 °C 1020.2 hPa Calm   9.7 km/h 93 % 0.0 mm
18:22 15.9 °C 14.8 °C 1020.2 hPa WNW 3.2 km/h 6.4 km/h 93 % 0.0 mm
18:32 15.8 °C 14.7 °C 1020.2 hPa West 3.2 km/h 4.8 km/h 93 % 0.0 mm
18:37 15.8 °C 14.7 °C 1020.2 hPa West 4.8 km/h 4.8 km/h 93 % 0.0 mm
18:42 15.8 °C 14.8 °C 1020.2 hPa West 3.2 km/h 6.4 km/h 94 % 0.0 mm
18:47 15.8 °C 14.8 °C 1020.2 hPa SW 3.2 km/h 6.4 km/h 94 % 0.0 mm
18:52 15.8 °C 14.8 °C 1020.2 hPa WNW 3.2 km/h 8.0 km/h 94 % 0.0 mm
18:57 15.8 °C 14.8 °C 1020.2 hPa SW 4.8 km/h 9.7 km/h 94 % 0.0 mm
19:02 15.8 °C 14.8 °C 1020.2 hPa WSW 3.2 km/h 9.7 km/h 94 % 0.0 mm
19:12 15.7 °C 14.7 °C 1020.2 hPa West 1.6 km/h 9.7 km/h 94 % 0.0 mm
19:17 15.7 °C 14.7 °C 1020.5 hPa WSW 1.6 km/h 4.8 km/h 94 % 0.0 mm
19:22 15.7 °C 14.7 °C 1020.5 hPa Calm   4.8 km/h 94 % 0.0 mm
19:32 15.6 °C 14.6 °C 1020.5 hPa SW 3.2 km/h 4.8 km/h 94 % 0.0 mm
19:37 15.6 °C 14.6 °C 1020.5 hPa SW 3.2 km/h 6.4 km/h 94 % 0.0 mm
19:42 15.6 °C 14.6 °C 1020.5 hPa SW 4.8 km/h 6.4 km/h 94 % 0.0 mm
19:47 15.6 °C 14.8 °C 1020.5 hPa WSW 3.2 km/h 8.0 km/h 95 % 0.0 mm
19:57 15.5 °C 14.7 °C 1020.5 hPa WSW 6.4 km/h 8.0 km/h 95 % 0.0 mm
20:02 15.5 °C 14.7 °C 1020.5 hPa West 4.8 km/h 8.0 km/h 95 % 0.0 mm
20:12 15.4 °C 14.6 °C 1020.5 hPa West 1.6 km/h 8.0 km/h 95 % 0.0 mm
20:17 15.4 °C 14.6 °C 1020.5 hPa WSW 1.6 km/h 8.0 km/h 95 % 0.0 mm
20:22 15.4 °C 14.6 °C 1020.5 hPa SW 3.2 km/h 8.0 km/h 95 % 0.0 mm
20:32 15.4 °C 14.6 °C 1020.5 hPa WSW 1.6 km/h 8.0 km/h 95 % 0.0 mm
20:37 15.4 °C 14.6 °C 1020.5 hPa WSW 1.6 km/h 8.0 km/h 95 % 0.0 mm
20:42 15.4 °C 14.8 °C 1020.5 hPa West 1.6 km/h 8.0 km/h 96 % 0.0 mm
20:52 15.4 °C 14.8 °C 1020.9 hPa WSW 1.6 km/h 4.8 km/h 96 % 0.0 mm
20:57 15.4 °C 14.8 °C 1020.9 hPa Calm   4.8 km/h 96 % 0.0 mm
21:02 15.4 °C 14.8 °C 1020.9 hPa Calm   4.8 km/h 96 % 0.0 mm
21:12 15.4 °C 14.8 °C 1020.9 hPa Calm   4.8 km/h 96 % 0.0 mm
21:17 15.3 °C 14.7 °C 1020.9 hPa Calm     96 % 0.0 mm
21:27 15.3 °C 14.7 °C 1020.9 hPa Calm   1.6 km/h 96 % 0.0 mm
21:32 15.3 °C 14.7 °C 1020.9 hPa Calm   1.6 km/h 96 % 0.0 mm
21:37 15.2 °C 14.6 °C 1020.9 hPa SW 1.6 km/h   96 % 0.0 mm
21:42 15.3 °C 14.7 °C 1020.9 hPa Calm     96 % 0.0 mm
21:47 15.3 °C 14.7 °C 1020.9 hPa Calm   3.2 km/h 96 % 0.0 mm
21:57 15.2 °C 14.6 °C 1020.9 hPa Calm   3.2 km/h 96 % 0.0 mm
22:02 15.2 °C 14.6 °C 1020.9 hPa SSW 1.6 km/h 3.2 km/h 96 % 0.0 mm
22:12 15.2 °C 14.6 °C 1020.9 hPa SW 4.8 km/h 4.8 km/h 96 % 0.0 mm
22:17 15.1 °C 14.5 °C 1021.2 hPa SSW 1.6 km/h 6.4 km/h 96 % 0.0 mm
22:22 15.1 °C 14.5 °C 1021.2 hPa SSW 1.6 km/h 6.4 km/h 96 % 0.0 mm
22:27 15.0 °C 14.4 °C 1020.9 hPa SSW 1.6 km/h 6.4 km/h 96 % 0.0 mm
22:32 14.9 °C 14.3 °C 1020.9 hPa Calm   6.4 km/h 96 % 0.0 mm
22:42 14.6 °C 14.0 °C 1021.2 hPa Calm   3.2 km/h 96 % 0.0 mm
22:47 14.6 °C 14.0 °C 1020.9 hPa Calm     96 % 0.0 mm
22:52 14.5 °C 13.9 °C 1021.2 hPa Calm     96 % 0.0 mm
22:57 14.5 °C 13.9 °C 1021.2 hPa Calm     96 % 0.0 mm
23:12 14.4 °C 13.8 °C 1021.2 hPa Calm     96 % 0.0 mm
23:17 14.4 °C 13.8 °C 1021.2 hPa Calm     96 % 0.0 mm
23:22 14.4 °C 13.9 °C 1021.2 hPa Calm     97 % 0.0 mm
23:32 14.3 °C 13.7 °C 1021.2 hPa Calm     96 % 0.0 mm
23:37 14.3 °C 13.8 °C 1021.2 hPa Calm     97 % 0.0 mm
23:42 14.3 °C 13.8 °C 1021.2 hPa Calm     97 % 0.0 mm
23:47 14.3 °C 13.8 °C 1021.2 hPa Calm     97 % 0.0 mm
23:52 14.3 °C 13.8 °C 1021.2 hPa Calm     97 % 0.0 mm
23:57 14.2 °C 13.6 °C 1021.2 hPa Calm     96 % 0.0 mm
Meteo18
Compliments of Weather Underground - 4 mb

Script developed by  Jim McMurry - jmcmurry@mwt.net Adapted for the template by  Wim van der Kuil - Leuven-Template.eu

You find our weather info also at:

European Weather Network

Weather Underground

Equipment we use:

Weather-station
Davis Vue

Weather-program
Meteohub

Weather-server
Raspberry PI 2 B+

Provider
1 and 1

Davis Vue

Meteohub

Raspberry PI 2 B+

1 and 1